createdAt,value
2018-10-07T00:00:24.575Z,35.50
2018-10-07T00:02:54.097Z,36.00
2018-10-07T00:05:23.633Z,35.75
2018-10-07T00:07:53.636Z,36.00
2018-10-07T00:10:23.356Z,38.75
2018-10-07T00:12:52.935Z,36.75
2018-10-07T00:15:23.173Z,35.50
2018-10-07T00:17:52.761Z,36.00
2018-10-07T00:20:22.532Z,34.75
2018-10-07T00:22:52.517Z,35.25
2018-10-07T00:25:21.978Z,35.00
2018-10-07T00:27:51.526Z,35.00
2018-10-07T00:30:21.873Z,35.75
2018-10-07T00:32:51.496Z,37.75
2018-10-07T00:35:21.891Z,34.50
2018-10-07T00:37:51.962Z,36.75
2018-10-07T00:40:21.526Z,36.75
2018-10-07T00:42:51.794Z,34.75
2018-10-07T00:45:21.762Z,36.00
2018-10-07T00:47:51.930Z,37.75
2018-10-07T00:50:23.325Z,36.50
2018-10-07T00:52:52.799Z,36.75
2018-10-07T00:55:23.380Z,35.00
2018-10-07T00:57:53.751Z,36.75
2018-10-07T01:00:24.264Z,38.25
2018-10-07T01:02:53.854Z,36.00
2018-10-07T01:05:23.448Z,36.75
2018-10-07T01:07:53.618Z,34.00
2018-10-07T01:10:23.453Z,36.25
2018-10-07T01:12:53.195Z,34.75
2018-10-07T01:15:23.329Z,36.50
2018-10-07T01:17:54.467Z,36.25
2018-10-07T01:20:23.969Z,36.00
2018-10-07T01:22:53.606Z,36.00
2018-10-07T01:25:23.254Z,36.75
2018-10-07T01:27:53.474Z,35.75
2018-10-07T01:30:30.220Z,35.50
2018-10-07T01:33:00.417Z,37.75
2018-10-07T01:35:30.594Z,36.00
2018-10-07T01:38:00.043Z,36.25
2018-10-07T01:40:30.134Z,36.75
2018-10-07T01:42:59.523Z,37.00
2018-10-07T01:45:30.450Z,36.75
2018-10-07T01:48:00.224Z,36.50
2018-10-07T01:50:30.193Z,40.00
2018-10-07T01:52:59.880Z,39.75
2018-10-07T01:55:30.139Z,39.25
2018-10-07T01:57:59.822Z,39.25
2018-10-07T02:00:29.386Z,39.75
2018-10-07T02:03:12.378Z,40.00
2018-10-07T02:05:42.998Z,38.75
2018-10-07T02:08:14.635Z,38.25
2018-10-07T02:10:44.906Z,39.50
2018-10-07T08:39:39.079Z,3.50
2018-10-07T08:42:09.589Z,4.00
2018-10-07T08:44:38.989Z,2.50
2018-10-07T08:49:39.168Z,4.50
2018-10-07T08:52:10.233Z,5.00
2018-10-07T08:54:41.322Z,4.50
2018-10-07T08:57:14.214Z,3.75
2018-10-07T08:59:47.250Z,5.00
2018-10-07T09:02:17.999Z,4.00
2018-10-07T09:04:50.796Z,2.00
2018-10-07T09:07:21.314Z,2.25
2018-10-07T09:09:51.411Z,5.00
2018-10-07T09:12:28.317Z,4.50
2018-10-07T09:15:20.278Z,5.00
2018-10-07T09:17:49.879Z,3.75
2018-10-07T09:20:23.099Z,3.75
2018-10-07T09:22:53.324Z,3.75
2018-10-07T09:25:23.058Z,2.00
2018-10-07T09:27:59.072Z,1.25
2018-10-07T09:30:29.934Z,2.00
2018-10-07T09:33:10.888Z,1.00
2018-10-07T09:35:40.646Z,3.75
2018-10-07T09:38:11.530Z,3.00
2018-10-07T09:40:48.140Z,3.00
2018-10-07T09:43:19.577Z,2.00
2018-10-07T09:45:53.679Z,1.75
2018-10-07T09:48:40.768Z,1.00
2018-10-07T09:51:11.233Z,1.00
2018-10-07T09:53:55.776Z,1.00
2018-10-07T09:56:27.384Z,1.00
2018-10-07T09:59:05.426Z,1.00
2018-10-07T10:01:36.413Z,0.25
2018-10-07T10:04:08.490Z,1.00
2018-10-07T10:06:48.224Z,1.00
2018-10-07T10:09:20.744Z,1.00
2018-10-07T10:11:51.614Z,1.00
2018-10-07T10:14:21.489Z,1.25
2018-10-07T10:16:59.145Z,1.50
2018-10-07T10:19:53.258Z,1.00
2018-10-07T10:22:37.203Z,1.00
2018-10-07T10:26:15.539Z,1.50
2018-10-07T10:28:57.322Z,1.50
2018-10-07T10:33:43.638Z,1.00
2018-10-07T10:36:27.524Z,1.00
2018-10-07T10:43:24.193Z,1.00
2018-10-07T10:46:02.680Z,1.00
2018-10-07T10:48:45.824Z,1.00
2018-10-07T10:52:27.092Z,1.00
2018-10-07T10:55:08.382Z,0.75
2018-10-07T10:57:45.375Z,1.00
2018-10-07T11:00:35.190Z,0.50
2018-10-07T11:03:21.074Z,0.50
2018-10-07T11:06:29.285Z,1.00
2018-10-07T11:11:16.963Z,0.00
2018-10-07T11:14:08.244Z,0.75
2018-10-07T11:23:42.285Z,0.25
2018-10-07T11:26:22.367Z,0.75
2018-10-07T11:29:07.097Z,1.00
2018-10-07T11:31:53.270Z,1.00
2018-10-07T11:35:15.699Z,0.50
2018-10-07T11:38:27.986Z,1.00
2018-10-07T11:41:49.324Z,0.00
2018-10-07T11:44:32.365Z,1.00
2018-10-07T11:48:58.529Z,1.00
2018-10-07T11:51:39.739Z,1.00
2018-10-07T11:54:18.387Z,0.50
2018-10-07T11:56:52.522Z,1.00
2018-10-07T11:59:24.537Z,1.00
2018-10-07T12:01:56.129Z,0.25
2018-10-07T12:04:27.355Z,0.00
2018-10-07T12:06:58.502Z,0.75
2018-10-07T12:09:33.309Z,0.25
2018-10-07T12:12:06.256Z,0.00
2018-10-07T12:14:38.553Z,1.00
2018-10-07T12:17:10.643Z,0.75
2018-10-07T12:19:41.816Z,1.00
2018-10-07T12:22:13.321Z,1.00
2018-10-07T12:24:43.937Z,1.00
2018-10-07T12:27:14.603Z,1.00
2018-10-07T12:29:45.275Z,1.00
2018-10-07T12:32:18.348Z,1.00
2018-10-07T12:34:53.369Z,0.00
2018-10-07T12:37:24.608Z,0.75
2018-10-07T12:39:57.060Z,0.75
2018-10-07T12:42:39.011Z,1.00
2018-10-07T12:48:13.832Z,0.00
2018-10-07T12:50:46.311Z,0.00
2018-10-07T12:53:15.931Z,1.00
2018-10-07T12:55:45.611Z,0.00
2018-10-07T12:58:19.511Z,1.00
2018-10-07T13:01:01.296Z,1.00
2018-10-07T13:03:31.692Z,0.00
2018-10-07T13:06:01.363Z,0.75
2018-10-07T13:08:30.755Z,1.00
2018-10-07T13:11:04.024Z,1.00
2018-10-07T13:13:35.393Z,0.75
2018-10-07T13:16:06.187Z,1.00
2018-10-07T13:18:37.453Z,1.00
2018-10-07T13:21:07.636Z,1.00
2018-10-07T13:23:38.446Z,1.00
2018-10-07T13:26:11.384Z,1.00
2018-10-07T13:28:49.250Z,1.00
2018-10-07T13:31:20.289Z,1.00
2018-10-07T13:33:50.085Z,1.00
2018-10-07T13:36:22.041Z,1.00
2018-10-07T13:38:53.122Z,1.00
2018-10-07T13:41:23.726Z,0.50
2018-10-07T13:43:56.745Z,1.00
2018-10-07T13:46:30.003Z,1.00
2018-10-07T13:49:05.403Z,0.00
2018-10-07T13:51:36.549Z,1.00
2018-10-07T13:54:06.589Z,0.25
2018-10-07T13:56:38.138Z,0.75
2018-10-07T13:59:07.636Z,0.25
2018-10-07T14:01:42.180Z,0.00
2018-10-07T14:04:11.857Z,0.00
2018-10-07T14:06:43.135Z,0.50
2018-10-07T14:09:12.883Z,0.00
2018-10-07T14:11:43.572Z,0.00
2018-10-07T14:14:17.591Z,0.75
2018-10-07T14:16:48.597Z,0.00
2018-10-07T14:19:19.485Z,0.00
2018-10-07T14:21:55.898Z,0.50
2018-10-07T14:24:25.552Z,1.25
2018-10-07T14:26:58.685Z,1.00
2018-10-07T14:29:33.019Z,0.50
2018-10-07T14:32:04.308Z,0.00
2018-10-07T14:34:34.157Z,0.00
2018-10-07T14:37:05.936Z,0.00
2018-10-07T14:39:39.361Z,0.00
2018-10-07T14:42:09.520Z,0.00
2018-10-07T14:44:42.014Z,0.00
2018-10-07T14:47:11.783Z,1.00
2018-10-07T14:49:45.235Z,0.00
2018-10-07T14:52:15.833Z,0.00
2018-10-07T14:54:47.873Z,0.00
2018-10-07T14:57:19.876Z,0.00
2018-10-07T14:59:50.576Z,0.00
2018-10-07T15:02:21.527Z,0.25
2018-10-07T15:04:56.688Z,0.00
2018-10-07T15:07:27.692Z,0.00
2018-10-07T15:09:59.319Z,0.00
2018-10-07T15:12:31.401Z,0.00
2018-10-07T15:15:06.072Z,0.00
2018-10-07T15:17:36.272Z,0.00
2018-10-07T15:20:10.079Z,0.00
2018-10-07T15:22:44.167Z,0.25
2018-10-07T15:25:27.654Z,0.00
2018-10-07T15:28:16.652Z,0.25
2018-10-07T15:30:50.875Z,0.00
2018-10-07T15:33:20.213Z,0.00
2018-10-07T15:35:51.521Z,0.00
2018-10-07T15:38:24.134Z,0.00
2018-10-07T15:40:55.455Z,0.00
2018-10-07T15:43:26.435Z,0.00
2018-10-07T15:45:56.208Z,1.00
2018-10-07T15:48:26.242Z,1.00
2018-10-07T15:50:56.383Z,-0.25
2018-10-07T15:53:26.716Z,0.00
2018-10-07T15:55:57.679Z,0.00
2018-10-07T15:58:29.117Z,0.00
2018-10-07T16:03:37.292Z,0.00
2018-10-07T16:06:07.372Z,0.00
2018-10-07T16:08:37.645Z,0.75
2018-10-07T16:11:09.686Z,0.00
2018-10-07T16:13:41.878Z,1.00
2018-10-07T16:16:12.971Z,1.00
2018-10-07T16:18:42.860Z,0.00
2018-10-07T16:21:12.467Z,0.00
2018-10-07T16:23:43.671Z,0.00
2018-10-07T16:26:14.385Z,1.00
2018-10-07T16:28:44.745Z,1.00
2018-10-07T16:31:16.265Z,1.00
2018-10-07T16:33:48.487Z,1.00
2018-10-07T16:36:21.684Z,1.00
2018-10-07T16:38:58.338Z,1.00
2018-10-07T16:41:33.439Z,0.50
2018-10-07T16:44:04.045Z,0.50
2018-10-07T16:46:41.368Z,0.50
2018-10-07T16:49:11.569Z,1.00
2018-10-07T16:51:46.266Z,0.75
2018-10-07T16:54:17.525Z,1.00
2018-10-07T16:56:48.460Z,1.00
2018-10-07T16:59:17.950Z,1.00
2018-10-07T17:01:48.861Z,1.25
2018-10-07T17:04:22.171Z,0.75
2018-10-07T17:06:58.516Z,1.00
2018-10-07T17:09:30.585Z,1.00
2018-10-07T17:12:00.989Z,0.00
2018-10-07T17:14:34.144Z,0.00
2018-10-07T17:17:07.500Z,0.75
2018-10-07T17:19:39.816Z,0.75
2018-10-07T17:22:17.017Z,0.50
2018-10-07T17:24:50.167Z,1.00
2018-10-07T17:27:22.887Z,1.00
2018-10-07T17:30:00.554Z,1.00
2018-10-07T17:32:33.704Z,0.75
2018-10-07T17:35:05.001Z,1.00
2018-10-07T17:37:35.438Z,1.00
2018-10-07T17:40:08.500Z,1.00
2018-10-07T17:42:43.864Z,1.00
2018-10-07T17:45:20.329Z,0.00
2018-10-07T17:48:08.365Z,1.00
2018-10-07T17:50:41.607Z,0.00
2018-10-07T17:53:15.022Z,0.75
2018-10-07T17:55:47.626Z,1.00
2018-10-07T17:58:18.438Z,1.00
2018-10-07T18:00:49.568Z,1.50
2018-10-07T18:03:30.865Z,1.00
2018-10-07T18:06:16.256Z,0.75
2018-10-07T18:08:53.379Z,1.25
2018-10-07T18:11:29.119Z,0.75
2018-10-07T18:14:14.640Z,1.50
2018-10-07T18:16:48.830Z,1.00
2018-10-07T18:19:35.897Z,0.00
2018-10-07T18:22:07.872Z,1.00
2018-10-07T18:24:39.458Z,1.00
2018-10-07T18:27:09.134Z,0.50
2018-10-07T18:29:46.592Z,0.75
2018-10-07T18:32:17.191Z,1.00
2018-10-07T18:34:48.031Z,1.00
2018-10-07T18:37:20.330Z,1.00
2018-10-07T18:39:52.484Z,1.00
2018-10-07T18:42:26.580Z,1.00
2018-10-07T18:44:57.427Z,1.00
2018-10-07T18:47:28.363Z,1.00
2018-10-07T18:49:58.671Z,1.75
2018-10-07T18:52:28.721Z,1.25
2018-10-07T18:54:59.986Z,1.00
2018-10-07T18:57:32.412Z,1.00
2018-10-07T19:00:22.838Z,1.00
2018-10-07T19:02:53.673Z,1.00
2018-10-07T19:05:32.551Z,1.50
2018-10-07T19:08:06.180Z,1.50
2018-10-07T19:10:39.166Z,1.25
2018-10-07T19:13:09.485Z,1.00
2018-10-07T19:15:44.481Z,1.25
2018-10-07T19:18:19.462Z,1.25
2018-10-07T19:20:48.896Z,2.00
2018-10-07T19:23:19.574Z,1.00
2018-10-07T19:25:58.434Z,2.00
2018-10-07T19:28:30.552Z,2.00
2018-10-07T19:31:13.257Z,1.00
2018-10-07T19:33:45.303Z,1.00
2018-10-07T19:36:21.323Z,2.00
2018-10-07T19:38:56.847Z,2.00
2018-10-07T19:41:30.067Z,1.00
2018-10-07T19:44:04.850Z,1.50
2018-10-07T19:46:35.931Z,2.00
2018-10-07T19:49:05.667Z,1.25
2018-10-07T19:51:38.195Z,1.00
2018-10-07T19:54:10.302Z,2.00
2018-10-07T19:56:48.834Z,2.00
2018-10-07T19:59:20.131Z,2.00
2018-10-07T20:01:52.254Z,2.00
2018-10-07T20:04:27.329Z,2.00
2018-10-07T20:07:01.118Z,1.75
2018-10-07T20:09:31.339Z,2.00
2018-10-07T20:12:02.724Z,2.00
2018-10-07T20:14:33.339Z,2.00
2018-10-07T20:17:08.466Z,2.00
2018-10-07T20:19:44.922Z,2.00
2018-10-07T20:22:18.743Z,2.00
2018-10-07T20:24:48.604Z,2.00
2018-10-07T20:27:19.603Z,2.25
2018-10-07T20:29:49.291Z,2.25
2018-10-07T20:32:20.712Z,1.75
2018-10-07T20:34:51.189Z,1.25
2018-10-07T20:37:23.119Z,1.75
2018-10-07T20:39:57.831Z,3.00
2018-10-07T20:45:07.696Z,2.75
2018-10-07T20:47:40.537Z,2.00
2018-10-07T20:50:15.069Z,3.75
2018-10-07T20:52:45.367Z,2.50
2018-10-07T20:55:16.509Z,2.75
2018-10-07T20:57:48.091Z,2.00
2018-10-07T21:00:27.320Z,3.00
2018-10-07T21:03:01.766Z,3.75
2018-10-07T21:05:36.825Z,2.75
2018-10-07T21:08:11.377Z,2.00
2018-10-07T21:10:44.949Z,2.00
2018-10-07T21:13:16.512Z,2.75
2018-10-07T21:15:48.885Z,2.00
2018-10-07T21:18:26.208Z,4.25
2018-10-07T21:20:56.389Z,4.25
2018-10-07T21:23:29.292Z,3.75
2018-10-07T21:26:03.192Z,3.75
2018-10-07T21:28:34.195Z,3.75
2018-10-07T21:31:04.614Z,5.00
2018-10-07T21:33:37.366Z,5.00
2018-10-07T21:36:17.292Z,4.25
2018-10-07T21:38:47.572Z,4.00
2018-10-07T21:41:18.202Z,4.25
2018-10-07T21:43:49.282Z,5.00
2018-10-07T21:46:19.520Z,4.25
2018-10-07T21:48:49.304Z,4.75
2018-10-07T21:51:20.209Z,3.50
2018-10-07T21:53:50.350Z,4.00
2018-10-07T21:56:20.230Z,4.25
2018-10-07T21:58:49.776Z,4.25
2018-10-07T22:01:21.131Z,4.00
2018-10-07T22:03:52.784Z,4.00
2018-10-07T22:06:22.343Z,4.75
2018-10-07T22:08:52.870Z,5.50
2018-10-07T22:11:22.836Z,4.25
2018-10-07T22:13:53.938Z,4.75
2018-10-07T22:16:24.086Z,5.00
2018-10-07T22:18:54.664Z,4.00
2018-10-07T22:21:30.816Z,4.00
2018-10-07T22:24:00.418Z,4.50
2018-10-07T22:26:30.897Z,4.00
2018-10-07T22:29:00.622Z,5.00
2018-10-07T22:31:31.354Z,5.00
2018-10-07T22:34:01.215Z,5.00
2018-10-07T22:36:30.901Z,4.25
2018-10-07T22:39:01.866Z,5.00
2018-10-07T22:41:32.181Z,5.00
2018-10-07T22:44:01.725Z,5.00
2018-10-07T22:46:39.141Z,5.00
2018-10-07T22:49:10.917Z,3.00
2018-10-07T22:51:41.068Z,4.75
2018-10-07T22:54:11.750Z,5.00
2018-10-07T22:56:42.426Z,5.00
2018-10-07T22:59:16.590Z,7.00
2018-10-07T23:01:46.449Z,6.00
2018-10-07T23:04:17.655Z,5.50
2018-10-07T23:06:47.233Z,5.50
2018-10-07T23:09:16.796Z,4.25
2018-10-07T23:11:47.577Z,5.00
2018-10-07T23:14:18.389Z,6.00
2018-10-07T23:16:49.898Z,5.50
2018-10-07T23:19:19.790Z,5.00
2018-10-07T23:21:50.276Z,5.00
2018-10-07T23:24:20.230Z,5.50
2018-10-07T23:26:50.191Z,5.00
2018-10-07T23:29:20.127Z,6.25
2018-10-07T23:31:50.542Z,4.00
2018-10-07T23:34:24.259Z,5.00
2018-10-07T23:36:54.539Z,5.00
2018-10-07T23:39:24.230Z,6.00
2018-10-07T23:41:53.990Z,6.75
2018-10-07T23:44:25.122Z,8.00
2018-10-07T23:46:55.158Z,6.75
2018-10-07T23:49:24.694Z,6.75
2018-10-07T23:51:54.863Z,4.75
2018-10-07T23:54:29.613Z,6.75
2018-10-07T23:57:03.057Z,4.00
2018-10-07T23:59:33.367Z,5.00
